createdAt,value
2022-08-20T00:01:18.338Z,63.16
2022-08-20T00:03:50.044Z,63.03
2022-08-20T00:06:23.084Z,62.99
2022-08-20T00:08:52.439Z,62.93
2022-08-20T00:11:24.366Z,62.95
2022-08-20T00:13:55.828Z,63.08
2022-08-20T00:16:27.204Z,63.07
2022-08-20T00:18:55.289Z,62.96
2022-08-20T00:21:24.933Z,63.08
2022-08-20T00:23:56.645Z,63.09
2022-08-20T00:26:25.935Z,63.13
2022-08-20T00:28:54.573Z,62.95
2022-08-20T00:31:25.056Z,62.98
2022-08-20T00:33:53.943Z,62.68
2022-08-20T00:36:22.771Z,62.48
2022-08-20T00:39:02.491Z,62.76
2022-08-20T00:41:31.252Z,62.68
2022-08-20T00:44:09.711Z,62.65
2022-08-20T00:46:38.315Z,62.26
2022-08-20T00:49:08.594Z,62.21
2022-08-20T00:51:41.336Z,62.52
2022-08-20T00:54:17.033Z,62.68
2022-08-20T00:56:47.595Z,62.43
2022-08-20T00:59:19.323Z,62.37
2022-08-20T01:01:56.272Z,62.38
2022-08-20T01:04:26.278Z,62.84
2022-08-20T01:06:54.716Z,62.38
2022-08-20T01:09:33.554Z,62.29
2022-08-20T01:12:14.836Z,62.56
2022-08-20T01:14:46.491Z,62.16
2022-08-20T01:17:18.832Z,62.10
2022-08-20T01:19:49.925Z,62.13
2022-08-20T01:22:42.529Z,62.88
2022-08-20T01:25:20.284Z,62.41
2022-08-20T01:27:55.228Z,62.19
2022-08-20T01:30:25.993Z,62.00
2022-08-20T01:32:54.100Z,62.00
2022-08-20T01:35:28.615Z,62.16
2022-08-20T01:37:57.172Z,61.95
2022-08-20T01:40:44.387Z,62.14
2022-08-20T01:43:13.965Z,61.78
2022-08-20T01:45:41.812Z,61.95
2022-08-20T01:48:10.721Z,61.96
2022-08-20T01:50:47.120Z,61.78
2022-08-20T01:53:21.518Z,61.88
2022-08-20T01:55:51.222Z,61.91
2022-08-20T01:58:20.494Z,61.67
2022-08-20T02:00:48.291Z,61.97
2022-08-20T02:03:16.574Z,61.79
2022-08-20T02:05:44.654Z,62.05
2022-08-20T02:08:12.728Z,61.78
2022-08-20T02:10:40.511Z,61.97
2022-08-20T02:13:09.925Z,61.76
2022-08-20T02:15:42.899Z,61.49
2022-08-20T02:18:13.984Z,61.66
2022-08-20T02:20:43.129Z,61.66
2022-08-20T02:23:15.538Z,61.67
2022-08-20T02:25:48.354Z,61.47
2022-08-20T02:28:20.185Z,61.54
2022-08-20T02:30:52.955Z,61.60
2022-08-20T02:33:24.600Z,61.67
2022-08-20T02:35:56.861Z,61.45
2022-08-20T02:38:25.438Z,61.90
2022-08-20T02:40:53.598Z,61.55
2022-08-20T02:43:21.517Z,61.77
2022-08-20T02:45:51.849Z,61.83
2022-08-20T02:48:23.135Z,62.07
2022-08-20T02:50:53.468Z,61.51
2022-08-20T02:53:21.310Z,62.13
2022-08-20T02:55:50.487Z,61.86
2022-08-20T02:58:19.183Z,61.91
2022-08-20T03:00:47.437Z,61.81
2022-08-20T03:03:20.326Z,62.11
2022-08-20T03:05:48.234Z,61.86
2022-08-20T03:08:16.741Z,61.99
2022-08-20T03:10:47.346Z,62.24
2022-08-20T03:13:15.917Z,61.82
2022-08-20T03:15:46.867Z,62.10
2022-08-20T03:18:17.789Z,61.93
2022-08-20T03:20:46.829Z,62.08
2022-08-20T03:23:22.213Z,62.07
2022-08-20T03:25:50.994Z,62.09
2022-08-20T03:28:19.863Z,61.94
2022-08-20T03:30:48.377Z,61.83
2022-08-20T03:33:18.073Z,61.96
2022-08-20T03:35:45.831Z,61.92
2022-08-20T03:38:15.663Z,61.97
2022-08-20T03:40:43.483Z,61.88
2022-08-20T03:43:11.448Z,62.78
2022-08-20T03:45:41.546Z,62.65
2022-08-20T03:48:10.889Z,62.32
2022-08-20T03:50:42.809Z,62.41
2022-08-20T03:53:13.104Z,62.32
2022-08-20T03:55:53.709Z,62.34
2022-08-20T03:58:21.766Z,62.38
2022-08-20T04:00:59.837Z,62.46
2022-08-20T04:03:28.463Z,62.44
2022-08-20T04:05:57.617Z,62.22
2022-08-20T04:08:28.322Z,62.18
2022-08-20T04:10:58.614Z,62.38
2022-08-20T04:13:28.390Z,62.45
2022-08-20T04:15:57.617Z,62.56
2022-08-20T04:18:27.148Z,62.46
2022-08-20T04:20:55.694Z,62.30
2022-08-20T04:23:24.945Z,62.60
2022-08-20T04:25:52.737Z,62.62
2022-08-20T04:28:27.018Z,62.64
2022-08-20T04:30:55.480Z,62.27
2022-08-20T04:33:34.263Z,62.47
2022-08-20T04:36:06.395Z,62.39
2022-08-20T04:38:49.893Z,62.21
2022-08-20T04:41:22.944Z,62.51
2022-08-20T04:43:53.095Z,62.21
2022-08-20T04:46:22.724Z,62.16
2022-08-20T04:48:50.799Z,62.53
2022-08-20T04:51:23.313Z,62.40
2022-08-20T04:53:58.226Z,62.49
2022-08-20T04:56:28.388Z,62.84
2022-08-20T04:58:58.836Z,62.53
2022-08-20T05:01:27.573Z,62.12
2022-08-20T05:03:58.379Z,62.55
2022-08-20T05:06:28.822Z,62.10
2022-08-20T05:08:59.851Z,62.09
2022-08-20T05:11:34.138Z,62.24
2022-08-20T05:14:05.441Z,62.42
2022-08-20T05:16:37.833Z,62.43
2022-08-20T05:19:06.634Z,62.57
2022-08-20T05:21:34.398Z,62.55
2022-08-20T05:24:03.616Z,62.35
2022-08-20T05:26:31.622Z,62.76
2022-08-20T05:28:59.656Z,62.67
2022-08-20T05:31:32.692Z,62.60
2022-08-20T05:34:02.093Z,62.42
2022-08-20T05:36:30.162Z,62.61
2022-08-20T05:38:57.985Z,62.60
2022-08-20T05:41:30.204Z,62.70
2022-08-20T05:44:01.849Z,62.95
2022-08-20T05:46:31.631Z,63.18
2022-08-20T05:49:01.445Z,63.01
2022-08-20T05:51:30.415Z,63.22
2022-08-20T05:53:59.210Z,63.22
2022-08-20T05:56:31.212Z,63.26
2022-08-20T05:59:02.526Z,63.35
2022-08-20T06:01:30.344Z,63.44
2022-08-20T06:04:17.376Z,63.18
2022-08-20T06:06:47.097Z,63.22
2022-08-20T06:09:16.598Z,63.34
2022-08-20T06:12:01.879Z,63.44
2022-08-20T06:14:29.978Z,63.24
2022-08-20T06:17:04.801Z,63.37
2022-08-20T06:19:33.765Z,63.23
2022-08-20T06:22:02.532Z,63.05
2022-08-20T06:24:45.466Z,63.19
2022-08-20T06:27:17.114Z,63.08
2022-08-20T06:29:45.005Z,63.13
2022-08-20T06:32:12.796Z,63.14
2022-08-20T06:34:49.109Z,62.99
2022-08-20T06:37:21.167Z,62.97
2022-08-20T06:39:48.968Z,63.01
2022-08-20T06:42:20.747Z,62.95
2022-08-20T06:44:52.081Z,63.06
2022-08-20T06:47:22.266Z,62.94
2022-08-20T06:49:50.089Z,63.03
2022-08-20T06:52:18.138Z,62.91
2022-08-20T06:54:46.694Z,62.96
2022-08-20T06:57:14.978Z,62.86
2022-08-20T06:59:44.273Z,62.28
2022-08-20T07:02:20.024Z,62.07
2022-08-20T07:04:56.318Z,62.21
2022-08-20T07:07:24.085Z,62.57
2022-08-20T07:09:59.643Z,62.39
2022-08-20T07:12:27.443Z,62.45
2022-08-20T07:14:56.574Z,62.39
2022-08-20T07:17:24.398Z,62.80
2022-08-20T07:19:52.133Z,62.38
2022-08-20T07:22:20.090Z,62.15
2022-08-20T07:24:49.229Z,62.00
2022-08-20T07:27:21.926Z,62.16
2022-08-20T07:30:10.920Z,61.88
2022-08-20T07:32:45.253Z,62.19
2022-08-20T07:35:16.490Z,61.95
2022-08-20T07:37:46.660Z,62.14
2022-08-20T07:40:16.670Z,62.16
2022-08-20T07:42:44.571Z,62.08
2022-08-20T07:45:15.385Z,62.02
2022-08-20T07:47:44.865Z,62.35
2022-08-20T07:50:16.113Z,62.24
2022-08-20T07:52:46.441Z,62.51
2022-08-20T07:55:16.942Z,62.22
2022-08-20T07:57:48.641Z,61.33
2022-08-20T08:00:19.409Z,61.40
2022-08-20T08:02:49.662Z,61.24
2022-08-20T08:05:18.583Z,61.95
2022-08-20T08:07:49.029Z,61.00
2022-08-20T08:10:25.046Z,60.70
2022-08-20T08:13:02.434Z,60.47
2022-08-20T08:15:41.948Z,60.35
2022-08-20T08:18:23.380Z,59.38
2022-08-20T08:51:07.733Z,57.78
2022-08-20T08:53:40.469Z,56.64
2022-08-20T08:56:08.330Z,56.84
2022-08-20T08:58:36.788Z,55.49
2022-08-20T09:01:13.694Z,54.82
2022-08-20T09:03:58.390Z,55.21
2022-08-20T09:06:28.567Z,55.03
2022-08-20T09:09:02.740Z,53.92
2022-08-20T09:11:31.485Z,54.36
2022-08-20T09:13:59.529Z,53.30
2022-08-20T09:16:29.940Z,54.72
2022-08-20T09:19:17.183Z,52.11
2022-08-20T09:21:46.399Z,51.67
2022-08-20T09:24:14.543Z,52.17
2022-08-20T09:26:42.370Z,52.01
2022-08-20T09:29:10.192Z,53.51
2022-08-20T09:31:38.955Z,53.96
2022-08-20T09:34:07.239Z,52.98
2022-08-20T09:36:35.292Z,51.77
2022-08-20T09:39:04.871Z,51.88
2022-08-20T09:41:33.687Z,52.25
2022-08-20T09:44:02.366Z,52.09
2022-08-20T09:46:30.158Z,50.58
2022-08-20T09:48:57.931Z,48.55
2022-08-20T09:51:25.832Z,50.21
2022-08-20T09:53:53.649Z,48.46
2022-08-20T09:56:23.110Z,46.51
2022-08-20T09:58:53.101Z,46.12
2022-08-20T10:01:23.293Z,45.42
2022-08-20T10:03:55.003Z,46.68
2022-08-20T10:06:23.080Z,46.86
2022-08-20T10:08:51.963Z,46.98
2022-08-20T10:11:19.772Z,47.14
2022-08-20T10:13:51.197Z,46.94
2022-08-20T10:16:18.915Z,45.60
2022-08-20T10:18:51.049Z,46.26
2022-08-20T10:21:18.805Z,44.43
2022-08-20T10:23:46.636Z,45.14
2022-08-20T10:26:15.346Z,44.56
2022-08-20T10:28:43.102Z,44.83
2022-08-20T10:31:13.633Z,43.74
2022-08-20T10:33:42.626Z,43.15
2022-08-20T10:36:11.950Z,43.87
2022-08-20T10:38:39.850Z,44.62
2022-08-20T10:41:07.650Z,44.21
2022-08-20T10:43:35.955Z,42.02
2022-08-20T10:46:06.396Z,42.48
2022-08-20T10:48:36.372Z,43.07
2022-08-20T10:51:07.303Z,42.63
2022-08-20T10:53:35.959Z,41.55
2022-08-20T10:56:04.108Z,41.95
2022-08-20T10:58:37.494Z,41.60
2022-08-20T11:01:06.207Z,41.83
2022-08-20T11:03:36.216Z,41.55
2022-08-20T11:06:07.749Z,40.67
2022-08-20T11:08:36.396Z,41.90
2022-08-20T11:11:05.892Z,41.27
2022-08-20T11:13:33.780Z,40.31
2022-08-20T11:16:04.668Z,40.89
2022-08-20T11:18:32.962Z,40.50
2022-08-20T11:21:02.152Z,39.32
2022-08-20T11:23:30.483Z,39.73
2022-08-20T11:25:58.578Z,40.38
2022-08-20T11:28:32.232Z,40.31
2022-08-20T11:31:03.212Z,39.03
2022-08-20T11:33:31.370Z,38.52
2022-08-20T11:35:59.518Z,38.44
2022-08-20T11:38:28.673Z,38.19
2022-08-20T11:40:56.748Z,38.15
2022-08-20T11:43:24.425Z,38.15
2022-08-20T11:45:55.264Z,37.99
2022-08-20T11:48:23.487Z,37.98
2022-08-20T11:50:51.425Z,38.46
2022-08-20T11:53:19.244Z,38.20
2022-08-20T11:55:49.092Z,37.29
2022-08-20T11:58:17.244Z,37.64
2022-08-20T12:00:45.289Z,37.73
2022-08-20T12:03:13.087Z,37.45
2022-08-20T12:05:43.473Z,38.16
2022-08-20T12:08:26.811Z,38.31
2022-08-20T12:11:03.863Z,37.27
2022-08-20T12:13:47.765Z,37.58
2022-08-20T12:16:17.253Z,36.15
2022-08-20T12:18:48.561Z,36.74
2022-08-20T12:21:18.054Z,36.21
2022-08-20T12:23:46.458Z,36.60
2022-08-20T12:26:17.136Z,36.61
2022-08-20T12:28:45.066Z,36.64
2022-08-20T12:31:13.024Z,36.91
2022-08-20T12:33:42.333Z,37.01
2022-08-20T12:36:13.595Z,36.61
2022-08-20T12:38:41.517Z,37.23
2022-08-20T12:41:09.250Z,37.40
2022-08-20T12:43:38.394Z,36.74
2022-08-20T12:46:06.545Z,36.80
2022-08-20T12:48:34.403Z,36.30
2022-08-20T12:51:02.485Z,36.17
2022-08-20T12:53:30.315Z,35.81
2022-08-20T12:55:58.240Z,35.42
2022-08-20T12:58:26.330Z,35.78
2022-08-20T13:00:55.533Z,36.38
2022-08-20T13:03:23.370Z,34.96
2022-08-20T13:05:54.386Z,35.16
2022-08-20T13:08:24.262Z,34.73
2022-08-20T13:11:00.559Z,34.53
2022-08-20T13:13:35.860Z,34.68
2022-08-20T13:16:07.097Z,35.72
2022-08-20T13:18:34.999Z,35.07
2022-08-20T13:21:03.106Z,34.61
2022-08-20T13:23:30.953Z,35.34
2022-08-20T13:25:59.677Z,34.72
2022-08-20T13:28:29.624Z,35.20
2022-08-20T13:30:58.294Z,35.06
2022-08-20T13:33:31.607Z,35.25
2022-08-20T13:36:02.599Z,34.79
2022-08-20T13:38:37.682Z,34.39
2022-08-20T13:41:08.549Z,35.18
2022-08-20T13:43:38.639Z,35.03
2022-08-20T13:46:07.257Z,35.02
2022-08-20T13:48:36.919Z,35.10
2022-08-20T13:51:07.077Z,34.95
2022-08-20T13:53:37.108Z,34.87
2022-08-20T13:56:06.275Z,35.11
2022-08-20T13:58:35.433Z,35.61
2022-08-20T14:01:10.085Z,34.75
2022-08-20T14:03:43.985Z,35.09
2022-08-20T14:06:20.578Z,35.16
2022-08-20T14:08:53.000Z,35.00
2022-08-20T14:11:22.386Z,35.72
2022-08-20T14:13:52.293Z,35.38
2022-08-20T14:16:25.339Z,35.20
2022-08-20T14:18:58.578Z,35.39
2022-08-20T14:21:27.909Z,35.34
2022-08-20T14:23:57.067Z,35.02
2022-08-20T14:26:26.031Z,34.83
2022-08-20T14:28:54.973Z,35.27
2022-08-20T14:31:24.144Z,35.46
2022-08-20T14:33:53.565Z,35.52
2022-08-20T14:36:29.242Z,35.04
2022-08-20T14:39:01.260Z,34.51
2022-08-20T14:41:32.739Z,34.96
2022-08-20T14:44:05.581Z,34.78
2022-08-20T14:46:38.661Z,34.69
2022-08-20T16:01:05.006Z,35.95
2022-08-20T16:04:14.492Z,36.08
2022-08-20T16:06:50.043Z,36.03
2022-08-20T16:09:39.456Z,35.75
2022-08-20T16:12:15.638Z,35.67
2022-08-20T16:14:51.172Z,35.67
2022-08-20T16:17:34.158Z,35.97
2022-08-20T16:20:10.852Z,35.78
2022-08-20T16:22:46.628Z,35.27
2022-08-20T16:25:18.566Z,35.29
2022-08-20T16:27:58.742Z,35.74
2022-08-20T17:23:27.133Z,35.71
2022-08-20T17:25:58.776Z,35.54
2022-08-20T17:28:28.380Z,35.97
2022-08-20T17:30:58.953Z,35.28
2022-08-20T17:33:30.462Z,35.40
2022-08-20T17:36:02.377Z,35.77
2022-08-20T17:38:42.318Z,35.87
2022-08-20T17:41:20.823Z,36.40
2022-08-20T17:44:02.482Z,36.41
2022-08-20T17:46:35.371Z,36.62
2022-08-20T17:49:11.911Z,36.17
2022-08-20T17:51:47.885Z,36.94
2022-08-20T17:54:28.929Z,37.13
2022-08-20T17:57:05.928Z,38.00
2022-08-20T18:00:01.286Z,36.48
2022-08-20T18:02:39.797Z,36.25
2022-08-20T18:05:21.624Z,36.22
2022-08-20T18:08:20.878Z,36.02
2022-08-20T18:11:05.505Z,36.86
2022-08-20T18:13:49.463Z,37.51
2022-08-20T19:01:47.210Z,43.78
2022-08-20T19:04:26.618Z,43.78
2022-08-20T19:06:59.919Z,45.02
2022-08-20T19:09:46.628Z,44.56
2022-08-20T19:12:34.794Z,44.30
2022-08-20T19:15:07.143Z,45.39
2022-08-20T19:17:46.268Z,45.08
2022-08-20T19:20:17.309Z,45.55
2022-08-20T19:22:46.629Z,45.54
2022-08-20T19:25:30.315Z,45.11
2022-08-20T19:27:59.917Z,45.54
2022-08-20T19:30:37.553Z,45.64
2022-08-20T19:33:07.818Z,46.56
2022-08-20T19:35:36.547Z,46.34
2022-08-20T19:38:06.801Z,46.92
2022-08-20T19:40:39.298Z,46.99
2022-08-20T19:43:16.555Z,47.42
2022-08-20T19:45:48.375Z,47.57
2022-08-20T19:48:44.767Z,46.78
2022-08-20T19:51:22.221Z,47.60
2022-08-20T19:53:50.886Z,47.43
2022-08-20T19:56:21.801Z,47.38
2022-08-20T19:59:00.004Z,47.65
2022-08-20T20:01:28.306Z,48.08
2022-08-20T20:04:01.191Z,48.10
2022-08-20T20:06:30.478Z,48.14
2022-08-20T20:09:00.959Z,48.03
2022-08-20T20:11:34.274Z,48.61
2022-08-20T20:14:04.705Z,48.43
2022-08-20T20:16:38.634Z,48.44
2022-08-20T20:19:25.936Z,48.48
2022-08-20T20:22:05.941Z,48.51
2022-08-20T20:24:45.226Z,48.67
2022-08-20T20:27:20.128Z,49.07
2022-08-20T20:29:49.890Z,49.18
2022-08-20T20:32:21.819Z,49.36
2022-08-20T20:34:56.626Z,49.22
2022-08-20T20:37:44.657Z,49.36
2022-08-20T20:40:25.406Z,49.46
2022-08-20T20:43:03.323Z,49.37
2022-08-20T20:45:34.734Z,49.45
2022-08-20T20:48:18.406Z,49.30
2022-08-20T20:50:48.946Z,49.74
2022-08-20T20:53:47.457Z,49.62
2022-08-20T20:56:28.271Z,49.57
2022-08-20T20:58:56.678Z,49.75
2022-08-20T21:01:27.295Z,49.86
2022-08-20T21:04:12.618Z,49.77
2022-08-20T21:06:41.747Z,49.67
2022-08-20T21:09:09.559Z,49.92
2022-08-20T21:11:37.567Z,49.94
2022-08-20T21:14:05.496Z,50.03
2022-08-20T21:16:33.380Z,49.93
2022-08-20T21:19:02.076Z,49.99
2022-08-20T21:21:29.936Z,49.98
2022-08-20T21:23:59.577Z,50.22
2022-08-20T21:26:29.073Z,50.27
2022-08-20T21:28:57.106Z,50.61
2022-08-20T21:31:30.777Z,50.56
2022-08-20T21:33:58.541Z,50.54
2022-08-20T21:36:26.695Z,50.46
2022-08-20T21:38:54.442Z,50.50
2022-08-20T21:41:29.542Z,50.61
2022-08-20T21:43:58.533Z,50.72
2022-08-20T21:46:28.959Z,50.83
2022-08-20T21:48:56.894Z,50.52
2022-08-20T21:51:24.752Z,50.99
2022-08-20T21:53:53.039Z,50.81
2022-08-20T21:56:21.169Z,50.81
2022-08-20T21:58:53.123Z,51.02
2022-08-20T22:01:23.283Z,51.04
2022-08-20T22:03:52.058Z,50.76
2022-08-20T22:06:20.646Z,51.28
2022-08-20T22:08:48.402Z,50.93
2022-08-20T22:11:16.448Z,51.23
2022-08-20T22:13:44.879Z,51.32
2022-08-20T22:16:17.009Z,51.54
2022-08-20T22:18:45.005Z,51.26
2022-08-20T22:21:17.930Z,51.25
2022-08-20T22:23:45.744Z,51.25
2022-08-20T22:26:14.319Z,51.34
2022-08-20T22:28:42.996Z,51.50
2022-08-20T22:31:11.587Z,51.76
2022-08-20T22:33:40.789Z,51.66
2022-08-20T22:36:09.260Z,51.65
2022-08-20T22:38:37.243Z,51.59
2022-08-20T22:41:09.584Z,51.81
2022-08-20T22:43:46.232Z,51.53
2022-08-20T22:46:27.514Z,51.94
2022-08-20T22:48:57.953Z,51.71
2022-08-20T22:51:30.423Z,52.00
2022-08-20T22:53:59.001Z,51.89
2022-08-20T22:56:27.188Z,51.95
2022-08-20T22:58:59.577Z,52.32
2022-08-20T23:01:28.395Z,52.11
2022-08-20T23:03:59.789Z,51.82
2022-08-20T23:06:29.699Z,52.02
2022-08-20T23:08:57.445Z,52.11
2022-08-20T23:11:27.661Z,52.22
2022-08-20T23:13:56.911Z,52.29
2022-08-20T23:16:25.780Z,52.02
2022-08-20T23:18:55.312Z,52.01
2022-08-20T23:21:24.514Z,52.11
2022-08-20T23:23:52.326Z,52.30
2022-08-20T23:26:22.094Z,52.33
2022-08-20T23:28:50.289Z,52.33
2022-08-20T23:31:18.070Z,52.43
2022-08-20T23:33:45.825Z,52.33
2022-08-20T23:36:17.816Z,52.65
2022-08-20T23:38:46.988Z,52.45
2022-08-20T23:41:14.768Z,52.49
2022-08-20T23:43:42.627Z,52.83
2022-08-20T23:46:10.836Z,52.69
2022-08-20T23:48:39.153Z,52.58
2022-08-20T23:51:07.181Z,52.68
2022-08-20T23:53:35.650Z,52.58
2022-08-20T23:56:05.410Z,52.82
2022-08-20T23:58:33.143Z,52.84
